Time;durP1;ratioP1;P1;durP2;ratioP2;P2;SDS_P1;SDS_P2;PMS_P1;PMS_P2;Temp;Humidity;BMP_temperature;BMP_pressure;BME280_temperature;BME280_humidity;BME280_pressure;Samples;Min_cycle;Max_cycle;Signal;HPM_P1;HPM_P2
2023/11/04 00:00:11;;;;;;;1.70;1.30;;;10.10;99.90;;;10.19;90.82;98376.91;4736800;30;20461;-67
2023/11/04 00:02:39;;;;;;;3.07;1.03;;;10.10;99.90;;;10.13;90.87;98380.59;4736747;30;20437;-69
2023/11/04 00:05:10;;;;;;;1.50;1.20;;;10.00;99.90;;;10.15;90.93;98383.88;4736385;30;20521;-67
2023/11/04 00:07:38;;;;;;;8.25;1.20;;;10.00;99.90;;;10.12;91.38;98374.38;4735302;30;20215;-66
2023/11/04 00:10:09;;;;;;;4.32;1.40;;;10.00;99.90;;;9.98;91.66;98376.72;4735096;30;20602;-66
2023/11/04 00:12:38;;;;;;;1.57;1.00;;;9.90;99.90;;;10.07;91.03;98382.47;4735251;30;20594;-67
2023/11/04 00:15:08;;;;;;;1.30;0.93;;;9.90;99.90;;;10.07;90.51;98384.38;4734407;30;20450;-67
2023/11/04 00:17:36;;;;;;;4.80;1.67;;;10.00;99.90;;;9.99;90.76;98382.94;4733427;30;20432;-67
2023/11/04 00:20:09;;;;;;;6.00;1.13;;;9.90;99.90;;;9.86;91.73;98381.50;4734939;30;20458;-68
2023/11/04 00:22:37;;;;;;;1.20;0.73;;;9.80;99.90;;;9.83;92.17;98384.72;4734510;30;20452;-67
2023/11/04 00:25:08;;;;;;;2.80;1.03;;;9.70;99.90;;;9.71;91.50;98378.69;4734423;30;20481;-67
2023/11/04 00:27:37;;;;;;;1.93;0.97;;;9.60;99.90;;;9.74;91.67;98383.56;4733222;30;20432;-67
2023/11/04 00:30:08;;;;;;;4.10;1.25;;;9.60;99.90;;;9.77;91.78;98388.47;4734098;30;20455;-68
2023/11/04 00:32:37;;;;;;;1.70;0.93;;;9.70;99.90;;;9.69;91.71;98388.91;4747815;30;20823;-66
2023/11/04 00:35:07;;;;;;;8.23;0.97;;;9.60;99.90;;;9.68;92.00;98390.00;4730885;30;20474;-67
2023/11/04 00:37:37;;;;;;;3.53;1.40;;;9.60;99.90;;;9.72;91.70;98395.72;4732137;30;20486;-66
2023/11/04 00:40:08;;;;;;;3.30;0.93;;;9.60;99.90;;;9.58;93.21;98393.41;4732397;30;20707;-66
2023/11/04 00:42:38;;;;;;;2.35;1.45;;;;;;;9.50;93.24;98399.28;4734799;30;20815;-66
2023/11/04 00:45:08;;;;;;;2.35;1.20;;;9.50;99.90;;;9.56;92.03;98397.44;4748179;30;20303;-66
2023/11/04 00:47:37;;;;;;;1.10;0.80;;;9.50;99.90;;;9.33;93.04;98397.75;4734556;30;20208;-64
2023/11/04 00:50:06;;;;;;;3.00;1.17;;;9.40;99.90;;;9.28;94.70;98405.81;4733795;30;20204;-64
2023/11/04 00:52:48;;;;;;;2.03;1.25;;;9.30;99.90;;;9.38;93.53;98416.72;4734803;30;20492;-64
2023/11/04 00:55:18;;;;;;;1.48;1.00;;;9.30;99.90;;;9.35;93.28;98411.81;4735110;30;20698;-65
2023/11/04 00:57:46;;;;;;;4.28;3.90;;;9.30;99.90;;;9.35;93.38;98417.19;4734495;30;20677;-65
2023/11/04 01:00:23;;;;;;;3.60;1.60;;;9.30;99.90;;;9.42;93.03;98415.13;4734966;30;20314;-66
2023/11/04 01:02:52;;;;;;;1.25;0.85;;;9.30;99.90;;;9.27;93.55;98420.34;4746983;30;20231;-65
2023/11/04 01:05:22;;;;;;;1.43;1.13;;;9.30;99.90;;;9.21;93.09;98419.47;4747973;30;20279;-66
2023/11/04 01:07:52;;;;;;;1.70;0.60;;;9.20;99.90;;;9.21;93.38;98415.97;4748146;30;20454;-65
2023/11/04 01:10:23;;;;;;;2.47;1.23;;;9.10;99.90;;;9.22;93.10;98417.59;4734856;30;20200;-65
2023/11/04 01:12:53;;;;;;;1.48;0.80;;;9.10;99.90;;;9.16;93.65;98420.25;4734866;30;20228;-66
2023/11/04 01:15:22;;;;;;;2.17;0.80;;;9.10;99.90;;;9.20;93.19;98425.94;4733993;30;20705;-66
2023/11/04 01:17:51;;;;;;;3.20;1.00;;;9.10;99.90;;;9.26;93.41;98429.50;4734747;30;20679;-65
2023/11/04 01:20:20;;;;;;;3.60;1.45;;;9.20;99.90;;;9.19;93.57;98428.91;4734633;30;20204;-65
2023/11/04 01:22:48;;;;;;;4.18;0.90;;;9.20;99.90;;;9.23;93.10;98427.34;4734912;30;20639;-65
2023/11/04 01:25:18;;;;;;;1.13;1.02;;;9.10;99.90;;;9.16;93.76;98425.63;4747239;30;20210;-65
2023/11/04 01:27:47;;;;;;;3.07;0.80;;;9.10;99.90;;;9.26;92.50;98435.72;4747661;30;20307;-66
2023/11/04 01:30:17;;;;;;;1.15;0.73;;;9.10;99.90;;;9.32;92.19;98431.22;4734524;30;20478;-64
2023/11/04 01:32:45;;;;;;;1.83;0.77;;;9.10;99.90;;;9.27;91.83;98431.97;4733919;30;20255;-66
2023/11/04 01:35:14;;;;;;;0.90;0.60;;;9.20;99.90;;;9.34;92.07;98431.78;4747531;30;20222;-66
2023/11/04 01:37:43;;;;;;;12.07;1.05;;;9.20;99.90;;;9.16;91.75;98430.22;4734400;30;20199;-66
2023/11/04 01:40:13;;;;;;;6.78;1.48;;;9.10;99.90;;;9.30;90.73;98436.03;4734184;30;20673;-66
2023/11/04 01:42:46;;;;;;;1.35;0.90;;;9.20;99.90;;;9.06;91.62;98433.63;4738545;30;20239;-66
2023/11/04 01:45:16;;;;;;;1.75;0.80;;;9.10;99.90;;;9.25;91.05;98438.66;4733962;30;20590;-66
2023/11/04 01:47:45;;;;;;;4.27;1.27;;;9.10;99.90;;;9.20;90.80;98433.25;4747320;30;20204;-66
2023/11/04 01:50:14;;;;;;;1.10;0.80;;;9.10;99.90;;;9.23;90.17;98430.84;4733773;30;20480;-66
2023/11/04 01:52:44;;;;;;;6.18;1.13;;;9.10;99.90;;;9.14;90.34;98433.19;4733988;30;20236;-66
2023/11/04 01:55:15;;;;;;;1.35;0.80;;;9.10;99.90;;;9.18;90.99;98435.38;4733984;30;20207;-66
2023/11/04 01:57:46;;;;;;;1.13;0.77;;;9.10;99.90;;;9.05;91.28;98434.69;4747003;30;20586;-67
2023/11/04 02:00:15;;;;;;;10.30;1.05;;;9.00;99.90;;;8.91;91.05;98436.13;4746218;30;20215;-66
2023/11/04 02:02:45;;;;;;;1.88;1.02;;;9.00;99.90;;;8.79;91.76;98435.44;4732789;30;20310;-66
2023/11/04 02:05:14;;;;;;;1.95;1.65;;;8.80;99.90;;;8.71;92.79;98441.28;4733886;30;20266;-66
2023/11/04 02:07:45;;;;;;;1.20;0.88;;;8.70;99.90;;;8.66;93.02;98443.91;4732507;30;20204;-66
2023/11/04 02:10:14;;;;;;;6.45;0.90;;;8.70;99.90;;;8.63;92.21;98441.69;4734101;30;20262;-66
2023/11/04 02:12:43;;;;;;;1.17;0.80;;;8.70;99.90;;;8.49;91.80;98452.00;4734138;30;20228;-66
2023/11/04 02:15:17;;;;;;;3.05;1.13;;;8.60;99.90;;;8.40;93.33;98452.69;4734566;30;20199;-65
2023/11/04 02:17:46;;;;;;;1.98;1.08;;;8.50;99.90;;;8.36;92.56;98446.16;4735186;30;20692;-65
2023/11/04 02:20:16;;;;;;;3.17;1.35;;;8.40;99.90;;;8.27;93.23;98445.72;4733430;30;20200;-66
2023/11/04 02:22:47;;;;;;;1.70;1.15;;;8.40;99.90;;;8.16;93.38;98442.06;4735906;30;20290;-65
2023/11/04 02:25:18;;;;;;;3.95;1.17;;;8.30;99.90;;;8.31;93.10;98449.59;4747658;30;20265;-65
2023/11/04 02:27:46;;;;;;;1.10;0.80;;;8.30;99.90;;;8.27;93.23;98451.13;4734131;30;20638;-64
2023/11/04 02:30:16;;;;;;;1.98;1.85;;;8.30;99.90;;;8.18;94.37;98447.22;4733690;30;20200;-68
2023/11/04 02:32:46;;;;;;;1.42;0.82;;;8.20;99.90;;;8.10;95.29;98453.81;4733449;30;20583;-66
2023/11/04 02:35:15;;;;;;;1.23;0.90;;;8.20;99.90;;;8.00;96.19;98459.03;4732370;30;20223;-65
2023/11/04 02:37:47;;;;;;;5.13;0.80;;;8.10;99.90;;;8.07;96.31;98459.69;4733759;30;20199;-66
2023/11/04 02:40:16;;;;;;;1.40;0.80;;;8.10;99.90;;;7.91;96.37;98457.81;4734265;30;20204;-66
2023/11/04 02:42:44;;;;;;;7.32;1.27;;;8.00;99.90;;;8.04;96.28;98465.56;4733204;30;20227;-65
2023/11/04 02:45:12;;;;;;;4.85;1.02;;;8.10;99.90;;;7.88;97.03;98465.56;4736615;30;20204;-65
2023/11/04 02:47:41;;;;;;;4.50;1.25;;;8.00;99.90;;;7.85;96.95;98472.22;4733255;30;20295;-65
2023/11/04 02:50:13;;;;;;;2.35;1.40;;;7.90;99.90;;;7.76;97.89;98473.69;4736765;30;20295;-65
2023/11/04 02:52:42;;;;;;;1.05;0.90;;;7.90;99.90;;;7.68;98.48;98476.78;4733140;30;20323;-65
2023/11/04 02:55:12;;;;;;;4.30;1.30;;;7.80;99.90;;;7.64;99.08;98483.72;4735444;30;20287;-66
2023/11/04 02:57:41;;;;;;;1.10;0.60;;;7.80;99.90;;;7.57;99.47;98481.16;4736802;30;20328;-66
2023/11/04 03:00:11;;;;;;;1.60;1.30;;;7.70;99.90;;;7.66;98.13;98478.88;4750236;30;20204;-65
2023/11/04 03:02:40;;;;;;;1.20;0.85;;;7.70;99.90;;;7.70;98.57;98485.41;4736763;30;20794;-65
2023/11/04 03:05:09;;;;;;;2.05;1.85;;;7.70;99.90;;;7.45;99.27;98476.91;4737110;30;20200;-65
2023/11/04 03:07:38;;;;;;;7.00;1.30;;;7.60;99.90;;;7.51;100.00;98486.69;4735847;30;20208;-66
2023/11/04 03:10:09;;;;;;;1.98;1.00;;;7.60;99.90;;;7.58;98.56;98487.38;4737078;30;20201;-66
2023/11/04 03:12:39;;;;;;;1.10;1.00;;;7.60;99.90;;;7.45;98.31;98487.66;4736403;30;20306;-65
2023/11/04 03:15:10;;;;;;;2.20;1.27;;;7.60;99.90;;;7.30;99.88;98491.69;4736232;30;20224;-67
2023/11/04 03:17:39;;;;;;;9.98;1.13;;;7.50;99.90;;;7.46;98.98;98483.91;4736372;30;20200;-65
2023/11/04 03:20:09;;;;;;;1.05;0.60;;;7.50;99.90;;;7.37;99.76;98486.97;4730848;30;20203;-64
2023/11/04 03:22:38;;;;;;;2.05;1.23;;;7.50;99.90;;;7.51;98.10;98487.50;4736452;30;20216;-65
2023/11/04 03:25:09;;;;;;;4.88;2.10;;;7.50;99.90;;;7.52;98.32;98485.63;4735973;30;20208;-65
2023/11/04 03:27:39;;;;;;;1.67;1.13;;;7.50;99.90;;;7.35;99.04;98493.66;4749600;30;20261;-65
2023/11/04 03:30:10;;;;;;;1.52;0.90;;;7.50;99.90;;;7.27;99.44;98489.47;4736203;30;20676;-65
2023/11/04 03:32:38;;;;;;;3.28;1.15;;;7.40;99.90;;;7.25;99.23;98488.91;4750131;30;20239;-66
2023/11/04 03:35:09;;;;;;;1.20;0.70;;;7.40;99.90;;;7.41;99.33;98488.13;4732751;30;20219;-66
2023/11/04 03:37:37;;;;;;;1.83;0.90;;;7.40;99.90;;;7.22;99.57;98489.38;4736170;30;20196;-67
2023/11/04 03:40:08;;;;;;;3.35;1.58;;;7.30;99.90;;;7.26;99.25;98487.81;4748939;30;20651;-66
2023/11/04 03:42:37;;;;;;;1.95;1.00;;;7.30;99.90;;;7.39;98.38;98486.75;4735163;30;20224;-65
2023/11/04 03:45:09;;;;;;;2.08;1.15;;;7.40;99.90;;;7.27;98.96;98497.53;4735400;30;20212;-65
2023/11/04 03:47:38;;;;;;;2.35;0.90;;;7.40;99.90;;;7.24;99.52;98492.66;4735393;30;20212;-65
2023/11/04 03:50:07;;;;;;;2.95;1.15;;;7.30;99.90;;;7.13;99.51;98485.41;4734155;30;20230;-66
2023/11/04 03:52:36;;;;;;;6.15;1.17;;;7.30;99.90;;;7.09;99.59;98489.66;4735333;30;20216;-66
2023/11/04 03:55:05;;;;;;;2.05;1.35;;;7.20;99.90;;;7.10;99.78;98488.59;4735012;30;20559;-66
2023/11/04 03:57:35;;;;;;;2.20;1.17;;;7.20;99.90;;;7.25;99.14;98498.84;4748081;30;20211;-66
2023/11/04 04:00:04;;;;;;;6.40;1.90;;;7.30;99.90;;;7.25;98.91;98493.47;4735445;30;20578;-65
2023/11/04 04:02:40;;;;;;;1.42;1.17;;;7.30;99.90;;;7.15;99.07;98494.06;4734605;30;20251;-65
2023/11/04 04:05:12;;;;;;;3.15;1.02;;;7.20;99.90;;;7.11;100.00;98492.09;4735209;30;20267;-65
2023/11/04 04:07:40;;;;;;;1.27;1.17;;;7.20;99.90;;;7.15;99.78;98486.00;4735353;30;20220;-66
2023/11/04 04:10:11;;;;;;;11.45;2.30;;;7.20;99.90;;;6.92;100.00;98491.44;4735275;30;20254;-65
2023/11/04 04:12:39;;;;;;;1.00;0.85;;;7.10;99.90;;;7.08;100.00;98490.69;4734963;30;20715;-66
2023/11/04 04:15:09;;;;;;;1.88;1.15;;;7.10;99.90;;;7.02;100.00;98483.56;4734730;30;20295;-65
2023/11/04 04:17:39;;;;;;;7.07;0.80;;;7.10;99.90;;;6.84;100.00;98489.94;4735136;30;20693;-65
2023/11/04 04:20:12;;;;;;;5.13;2.38;;;7.00;99.90;;;6.90;100.00;98480.09;4732664;30;20751;-64
2023/11/04 04:22:40;;;;;;;1.63;0.90;;;7.00;99.90;;;6.88;100.00;98495.63;4730716;30;20228;-65
2023/11/04 04:25:09;;;;;;;1.52;1.23;;;7.00;99.90;;;6.98;100.00;98493.16;4735410;30;20207;-66
2023/11/04 04:27:38;;;;;;;1.63;1.10;;;7.00;99.90;;;6.85;100.00;98482.69;4735414;30;20211;-65
2023/11/04 04:30:09;;;;;;;1.38;1.25;;;7.00;99.90;;;6.82;100.00;98492.06;4734834;30;20219;-66
2023/11/04 04:32:37;;;;;;;1.88;0.73;;;6.90;99.90;;;6.79;100.00;98494.38;4722870;30;20224;-66
2023/11/04 04:35:08;;;;;;;1.67;1.05;;;6.90;99.90;;;6.70;100.00;98495.78;4737377;30;20221;-67
2023/11/04 04:37:38;;;;;;;1.25;0.90;;;6.90;99.90;;;6.87;100.00;98496.72;4736704;30;20204;-65
2023/11/04 04:40:10;;;;;;;14.38;1.40;;;6.90;99.90;;;6.86;100.00;98495.06;4736145;30;20617;-65
2023/11/04 04:42:39;;;;;;;1.30;0.77;;;6.90;99.90;;;6.88;100.00;98492.94;4730308;30;20227;-65
2023/11/04 04:45:10;;;;;;;9.90;3.15;;;6.90;99.90;;;6.84;100.00;98497.16;4734413;30;20210;-66
2023/11/04 04:47:39;;;;;;;0.95;0.57;;;6.90;99.90;;;6.96;100.00;98484.53;4744053;30;20680;-65
2023/11/04 04:50:10;;;;;;;1.70;0.90;;;7.00;99.90;;;6.75;100.00;98495.91;4747968;30;20242;-66
2023/11/04 04:52:39;;;;;;;1.17;0.93;;;6.90;99.90;;;6.79;100.00;98486.31;4730795;30;20264;-65
2023/11/04 04:55:10;;;;;;;4.25;1.52;;;6.90;99.90;;;6.70;100.00;98479.66;4736496;30;20199;-66
2023/11/04 04:57:39;;;;;;;1.48;0.80;;;6.80;99.90;;;6.70;100.00;98485.03;4735781;30;20738;-66
2023/11/04 05:00:09;;;;;;;3.85;1.05;;;6.80;99.90;;;6.86;100.00;98487.84;4735837;30;20242;-67
2023/11/04 05:02:40;;;;;;;1.30;0.90;;;6.80;99.90;;;6.68;100.00;98487.16;4731517;30;20239;-66
2023/11/04 05:05:11;;;;;;;0.80;0.70;;;6.80;99.90;;;6.89;100.00;98499.97;4734221;30;20544;-67
2023/11/04 05:07:40;;;;;;;0.90;0.60;;;6.80;99.90;;;6.97;100.00;98495.03;4734513;30;20200;-63
2023/11/04 05:10:10;;;;;;;1.00;0.70;;;6.90;99.90;;;6.85;100.00;98493.44;4734237;30;20566;-65
2023/11/04 05:12:42;;;;;;;4.05;1.00;;;6.90;99.90;;;6.83;100.00;98495.53;4729114;30;20315;-65
2023/11/04 05:15:11;;;;;;;3.40;1.52;;;6.90;99.90;;;6.80;100.00;98496.00;4732870;30;20204;-67
2023/11/04 05:17:42;;;;;;;0.98;0.55;;;6.80;99.90;;;6.89;100.00;98499.97;4732063;30;20243;-65
2023/11/04 05:20:14;;;;;;;1.00;0.68;;;6.90;99.90;;;7.05;100.00;98491.19;4734438;30;20680;-67
2023/11/04 05:22:43;;;;;;;1.05;0.70;;;7.00;99.90;;;6.83;100.00;98490.97;4734080;30;20255;-66
2023/11/04 05:25:11;;;;;;;8.68;1.10;;;7.00;99.90;;;6.99;100.00;98490.25;4733935;30;20196;-66
2023/11/04 05:27:41;;;;;;;1.55;0.70;;;7.00;99.90;;;7.06;100.00;98492.00;4733862;30;20291;-66
2023/11/04 05:30:10;;;;;;;2.00;0.82;;;7.00;99.90;;;7.13;100.00;98493.47;4734042;30;20231;-66
2023/11/04 05:32:39;;;;;;;7.55;1.83;;;7.10;99.90;;;7.02;100.00;98490.84;4734096;30;20216;-66
2023/11/04 05:35:09;;;;;;;1.70;0.93;;;7.10;99.90;;;7.09;100.00;98488.81;4733842;30;20218;-66
2023/11/04 05:37:39;;;;;;;1.55;1.25;;;7.10;99.90;;;7.20;100.00;98496.06;4733376;30;20204;-67
2023/11/04 05:40:09;;;;;;;2.47;1.45;;;7.10;99.90;;;7.12;100.00;98494.53;4733434;30;20196;-66
2023/11/04 05:42:37;;;;;;;1.10;0.90;;;7.10;99.90;;;7.15;99.88;98491.38;4734304;30;20228;-66
2023/11/04 05:45:07;;;;;;;0.90;0.68;;;7.10;99.90;;;6.96;100.00;98492.59;4733946;30;20199;-66
2023/11/04 05:47:36;;;;;;;1.20;0.98;;;7.10;99.90;;;7.19;100.00;98495.22;4734555;30;20295;-65
2023/11/04 05:50:06;;;;;;;0.95;0.73;;;7.10;99.90;;;6.99;100.00;98497.50;4734285;30;20262;-66
2023/11/04 05:52:34;;;;;;;1.13;0.90;;;7.10;99.90;;;7.01;100.00;98495.41;4734488;30;20227;-66
2023/11/04 05:55:05;;;;;;;2.38;0.60;;;7.10;99.90;;;7.01;100.00;98499.97;4733877;30;20224;-65
2023/11/04 05:57:35;;;;;;;1.00;0.80;;;7.10;99.90;;;7.05;100.00;98496.56;4734197;30;20238;-66
2023/11/04 06:00:07;;;;;;;3.55;1.58;;;7.10;99.90;;;7.13;100.00;98500.72;4731359;30;20204;-66
2023/11/04 06:02:37;;;;;;;2.65;0.88;;;7.10;99.90;;;7.06;100.00;98500.88;4733400;30;20196;-66
2023/11/04 06:05:06;;;;;;;1.23;1.10;;;7.10;99.90;;;7.18;99.05;98492.78;4733773;30;20278;-65
2023/11/04 06:07:37;;;;;;;1.58;1.10;;;7.10;99.90;;;7.14;99.55;98502.38;4733588;30;20208;-66
2023/11/04 06:10:09;;;;;;;2.55;0.90;;;7.10;99.90;;;7.07;99.96;98499.81;4734436;30;20208;-65
2023/11/04 06:12:37;;;;;;;1.90;1.30;;;7.10;99.90;;;7.10;100.00;98502.03;4734240;30;20310;-65
2023/11/04 06:15:07;;;;;;;1.35;0.88;;;7.10;99.90;;;7.30;99.07;98501.63;4733535;30;20232;-65
2023/11/04 06:17:36;;;;;;;1.55;1.45;;;7.20;99.90;;;7.10;99.69;98510.09;4736625;30;20656;-66
2023/11/04 06:20:06;;;;;;;1.40;1.23;;;7.10;99.90;;;7.13;98.94;98503.41;4736790;30;20200;-66
2023/11/04 06:22:34;;;;;;;2.08;1.48;;;7.20;99.90;;;7.30;98.31;98499.75;4737038;30;20262;-66
2023/11/04 06:25:03;;;;;;;2.42;1.13;;;7.30;99.90;;;7.25;99.18;98502.34;4737007;30;20262;-66
2023/11/04 06:27:37;;;;;;;1.40;1.10;;;7.20;99.90;;;7.20;98.54;98504.13;4737167;30;20585;-65
2023/11/04 06:30:10;;;;;;;3.50;1.13;;;7.20;99.90;;;7.22;98.56;98502.81;4737042;30;20208;-66
2023/11/04 06:32:38;;;;;;;1.00;0.70;;;7.30;99.90;;;7.18;98.25;98509.72;4736896;30;20228;-65
2023/11/04 06:35:08;;;;;;;1.15;0.80;;;7.20;99.90;;;7.20;98.36;98507.63;4736995;30;20642;-65
2023/11/04 06:37:38;;;;;;;2.10;0.90;;;7.20;99.90;;;7.31;97.92;98506.75;4737102;30;20204;-65
2023/11/04 06:40:09;;;;;;;3.17;0.90;;;7.30;99.90;;;7.25;97.90;98496.16;4736786;30;20200;-65
2023/11/04 06:42:39;;;;;;;0.90;0.60;;;7.30;99.90;;;7.21;97.82;98503.88;4736616;30;20667;-65
2023/11/04 06:45:09;;;;;;;2.67;1.00;;;7.30;99.90;;;7.38;97.27;98499.38;4736658;30;20200;-65
2023/11/04 06:47:38;;;;;;;1.58;1.20;;;7.30;99.90;;;7.24;98.32;98492.66;4736975;30;20196;-65
2023/11/04 06:50:08;;;;;;;4.07;1.30;;;7.30;99.90;;;7.38;97.23;98504.75;4735426;30;20681;-65
2023/11/04 06:52:39;;;;;;;8.52;1.10;;;7.30;99.90;;;7.42;97.29;98489.75;4738588;30;20227;-65
2023/11/04 06:55:08;;;;;;;1.00;0.60;;;7.40;99.90;;;7.47;97.26;98496.28;4738146;30;20243;-65
2023/11/04 06:57:38;;;;;;;10.15;1.40;;;7.40;99.90;;;7.50;96.38;98490.44;4738316;30;20292;-65
2023/11/04 07:00:11;;;;;;;3.13;2.03;;;7.50;99.90;;;7.49;96.22;98491.50;4736676;30;20298;-65
2023/11/04 07:02:40;;;;;;;2.58;1.70;;;7.50;99.90;;;7.43;97.63;98491.41;4735167;30;20232;-65
2023/11/04 07:05:10;;;;;;;1.20;0.80;;;7.40;99.90;;;7.46;96.73;98497.34;4736086;30;20742;-65
2023/11/04 07:07:38;;;;;;;1.85;1.20;;;7.40;99.90;;;7.64;96.24;98497.19;4735151;30;20268;-65
2023/11/04 07:10:09;;;;;;;1.63;1.40;;;7.50;99.90;;;7.62;94.56;98494.72;4735981;30;20204;-65
2023/11/04 07:12:42;;;;;;;1.25;0.77;;;7.50;99.90;;;7.80;94.37;98499.06;4735996;30;20228;-64
2023/11/04 07:15:11;;;;;;;2.47;0.80;;;7.60;99.90;;;7.68;95.08;98499.13;4735825;30;20212;-65
2023/11/04 07:17:39;;;;;;;1.10;0.82;;;7.60;99.90;;;7.59;95.55;98495.22;4735966;30;20274;-66
2023/11/04 07:20:11;;;;;;;1.95;1.55;;;7.60;99.90;;;7.91;94.54;98500.88;4735852;30;20611;-65
2023/11/04 07:22:39;;;;;;;1.70;1.60;;;7.70;99.90;;;7.83;94.64;98495.91;4743077;30;20223;-65
2023/11/04 07:25:08;;;;;;;4.30;0.70;;;7.70;99.90;;;7.80;94.62;98501.75;4734195;30;20212;-66
2023/11/04 07:27:37;;;;;;;1.52;0.98;;;7.70;99.90;;;7.76;96.13;98497.91;4730113;30;20679;-66
2023/11/04 07:30:08;;;;;;;1.27;0.70;;;7.70;99.90;;;7.75;95.56;98496.28;4733100;30;20554;-65
2023/11/04 07:32:39;;;;;;;1.45;1.00;;;7.70;99.90;;;7.65;96.09;98496.13;4735666;30;20311;-67
2023/11/04 07:35:09;;;;;;;4.82;1.52;;;7.60;99.90;;;7.70;96.12;98496.19;4735585;30;20243;-67
2023/11/04 07:37:38;;;;;;;1.75;1.27;;;7.60;99.90;;;7.78;96.14;98495.81;4735961;30;20307;-67
2023/11/04 07:40:09;;;;;;;1.20;1.08;;;7.60;99.90;;;7.91;95.09;98487.41;4737013;30;20200;-68
2023/11/04 07:42:38;;;;;;;1.20;1.02;;;7.70;99.90;;;7.90;95.05;98496.56;4737214;30;20236;-67
2023/11/04 07:45:12;;;;;;;5.90;1.20;;;7.80;99.90;;;8.05;93.90;98488.75;4736426;30;20287;-68
2023/11/04 07:47:42;;;;;;;3.35;1.35;;;7.80;99.90;;;8.06;93.24;98492.25;4737559;30;20208;-68
2023/11/04 07:50:13;;;;;;;2.70;1.85;;;7.90;99.90;;;8.23;92.35;98482.28;4737442;30;20219;-68
2023/11/04 07:52:41;;;;;;;2.00;1.83;;;8.00;99.90;;;8.40;92.35;98475.06;4738884;30;20228;-68
2023/11/04 07:55:26;;;;;;;9.32;2.15;;;8.20;99.90;;;8.24;92.20;98476.66;4737145;30;20227;-68
2023/11/04 07:57:55;;;;;;;3.15;2.08;;;8.10;99.90;;;8.21;92.01;98469.09;4738264;30;20561;-68
2023/11/04 08:00:27;;;;;;;1.50;1.10;;;8.20;99.90;;;8.17;92.05;98467.13;4744610;30;20208;-68
2023/11/04 08:02:55;;;;;;;1.38;1.00;;;8.20;99.90;;;8.17;92.82;98470.63;4735803;30;20446;-68
2023/11/04 08:05:28;;;;;;;1.75;1.00;;;8.20;99.90;;;8.11;93.02;98466.22;4733434;30;20256;-67
2023/11/04 08:07:56;;;;;;;2.28;1.67;;;8.10;99.90;;;8.09;93.78;98457.56;4736815;30;20204;-67
2023/11/04 08:10:25;;;;;;;1.85;1.70;;;8.10;99.90;;;8.37;91.60;98458.56;4749445;30;20220;-67
2023/11/04 08:12:54;;;;;;;4.85;1.13;;;8.20;99.90;;;8.37;91.88;98455.88;4737473;30;20219;-67
2023/11/04 08:15:22;;;;;;;1.52;0.70;;;8.30;99.90;;;8.40;91.89;98458.06;4735368;30;20248;-68
2023/11/04 08:17:52;;;;;;;1.10;0.90;;;8.30;99.90;;;8.44;90.36;98459.19;4736078;30;20204;-68
2023/11/04 08:20:21;;;;;;;1.50;1.00;;;8.30;99.90;;;8.49;90.39;98452.00;4735210;30;20200;-66
2023/11/04 08:22:49;;;;;;;1.55;1.13;;;8.40;99.90;;;8.43;90.32;98462.94;4735704;30;20215;-66
2023/11/04 08:25:20;;;;;;;2.67;1.73;;;8.40;99.90;;;8.63;88.98;98455.16;4737226;30;20278;-67
2023/11/04 08:27:48;;;;;;;5.43;1.15;;;8.50;99.90;;;8.77;87.59;98455.63;4735013;30;20269;-67
2023/11/04 08:30:17;;;;;;;3.25;1.55;;;8.60;99.90;;;8.78;88.17;98459.94;4738339;30;20230;-67
2023/11/04 08:32:46;;;;;;;1.23;0.90;;;8.60;99.90;;;8.83;87.81;98447.34;4736388;30;20227;-68
2023/11/04 08:35:17;;;;;;;2.60;1.40;;;8.70;99.90;;;9.01;86.08;98455.13;4736424;30;20843;-68
2023/11/04 08:37:46;;;;;;;0.90;0.70;;;8.80;99.90;;;8.94;86.94;98448.31;4738641;30;20212;-68
2023/11/04 08:40:15;;;;;;;1.40;1.30;;;8.90;99.90;;;8.94;85.86;98449.13;4742321;30;20204;-67
2023/11/04 08:42:44;;;;;;;1.00;0.70;;;8.90;99.90;;;9.02;86.37;98451.38;4739031;30;20236;-67
2023/11/04 08:45:14;;;;;;;2.05;1.08;;;8.90;99.90;;;9.18;85.98;98443.47;4739524;30;20200;-68
2023/11/04 08:47:42;;;;;;;1.65;1.10;;;9.00;99.90;;;9.35;83.36;98438.78;4737133;30;20210;-68
2023/11/04 08:50:12;;;;;;;1.20;1.05;;;9.20;99.90;;;9.48;83.13;98444.63;4738436;30;20200;-66
2023/11/04 08:52:42;;;;;;;1.00;0.70;;;9.30;99.90;;;9.50;81.65;98447.03;4737070;30;20232;-67
2023/11/04 08:55:10;;;;;;;2.00;1.45;;;9.40;99.90;;;9.48;81.62;98441.09;4737860;30;20212;-69
2023/11/04 08:57:40;;;;;;;1.95;1.27;;;9.40;99.90;;;9.42;82.66;98445.63;4742123;30;20196;-68
2023/11/04 09:00:12;;;;;;;1.17;1.07;;;9.40;99.90;;;9.50;81.43;98445.16;4746631;30;20269;-67
2023/11/04 09:02:40;;;;;;;3.47;1.58;;;9.40;99.90;;;9.43;82.10;98446.44;4743656;30;20478;-68
2023/11/04 09:05:10;;;;;;;5.20;2.00;;;9.40;99.90;;;9.70;79.88;98443.75;4739706;30;20210;-68
2023/11/04 09:07:46;;;;;;;1.48;1.27;;;9.50;99.90;;;9.66;79.90;98456.13;4740306;30;20203;-68
2023/11/04 09:10:15;;;;;;;2.10;1.20;;;9.60;99.90;;;9.81;79.65;98448.16;4740136;30;20196;-67
2023/11/04 09:12:44;;;;;;;1.95;1.27;;;9.70;99.90;;;9.81;78.82;98438.19;4740091;30;20224;-66
2023/11/04 09:15:15;;;;;;;1.33;0.95;;;9.70;99.90;;;9.83;78.32;98438.72;4738447;30;20212;-66
2023/11/04 09:17:43;;;;;;;3.05;1.20;;;9.70;99.90;;;9.78;78.65;98444.06;4738777;30;20200;-68
2023/11/04 09:20:13;;;;;;;2.00;1.35;;;9.70;99.90;;;9.91;79.19;98446.38;4739738;30;20203;-68
2023/11/04 09:22:41;;;;;;;1.92;1.30;;;9.80;99.90;;;10.25;77.63;98443.44;4742148;30;20228;-67
2023/11/04 09:25:11;;;;;;;3.33;0.90;;;;;;;10.25;76.49;98444.25;4741171;30;20204;-66
2023/11/04 09:27:41;;;;;;;1.40;0.90;;;;;;;10.29;76.39;98439.13;4738431;30;20508;-67
2023/11/04 09:30:10;;;;;;;1.30;1.03;;;;;;;10.40;75.74;98440.84;4737271;30;20818;-68
2023/11/04 09:32:39;;;;;;;6.23;1.37;;;;;;;10.39;74.51;98439.22;4735697;30;20469;-67
2023/11/04 09:35:12;;;;;;;2.00;0.97;;;;;;;10.41;73.13;98437.03;4740743;30;20497;-67
2023/11/04 09:37:42;;;;;;;0.90;0.60;;;;;;;10.40;72.71;98446.25;4741486;30;20468;-67
2023/11/04 09:40:13;;;;;;;2.57;0.93;;;;;;;10.51;73.93;98447.09;4738149;30;20807;-68
2023/11/04 09:42:42;;;;;;;1.83;0.80;;;;;;;10.50;73.06;98437.38;4734729;30;20470;-68
2023/11/04 09:45:11;;;;;;;0.90;0.70;;;;;;;10.22;72.74;98433.94;4734389;30;20482;-68
2023/11/04 09:47:41;;;;;;;2.03;0.83;;;;;;;10.38;73.06;98437.56;4734166;30;20447;-68
2023/11/04 09:50:10;;;;;;;1.20;0.85;;;;;;;10.48;72.60;98426.81;4735950;30;20450;-68
2023/11/04 09:52:41;;;;;;;2.47;1.13;;;;;;;10.49;72.25;98425.75;4738200;30;20244;-68
2023/11/04 09:55:15;;;;;;;1.97;0.80;;;;;;;10.70;72.66;98413.97;4736762;30;20953;-67
2023/11/04 09:57:44;;;;;;;2.30;1.20;;;;;;;11.13;71.97;98417.41;4737175;30;20808;-67
2023/11/04 10:00:17;;;;;;;1.70;1.10;;;10.20;99.50;;;11.21;70.41;98411.47;4738804;30;20550;-67
2023/11/04 10:02:46;;;;;;;5.97;1.03;;;10.90;98.50;;;11.12;68.04;98411.19;4739109;30;20994;-68
2023/11/04 10:05:15;;;;;;;1.10;1.00;;;11.00;95.70;;;11.07;68.76;98411.16;4736272;30;20424;-68
2023/11/04 10:07:44;;;;;;;1.63;1.00;;;11.00;95.60;;;11.12;69.22;98411.19;4738824;30;20446;-70
2023/11/04 10:10:14;;;;;;;1.50;0.97;;;11.00;95.90;;;11.16;68.45;98401.44;4736144;30;20458;-67
2023/11/04 10:12:56;;;;;;;3.93;0.90;;;11.00;95.00;;;11.26;66.74;98395.25;4733580;30;21301;-68
2023/11/04 10:15:25;;;;;;;1.63;1.00;;;11.10;93.70;;;11.24;67.35;98402.81;4734093;30;20475;-69
2023/11/04 10:17:56;;;;;;;1.30;1.03;;;11.10;93.40;;;11.13;66.69;98393.88;4737993;30;20438;-68
2023/11/04 10:20:25;;;;;;;2.60;0.63;;;11.00;92.40;;;11.17;66.50;98402.25;4732393;30;20458;-67
2023/11/04 10:22:54;;;;;;;1.10;0.70;;;11.00;92.30;;;11.19;66.18;98389.25;4737455;30;20553;-67
2023/11/04 10:25:25;;;;;;;2.20;0.60;;;11.00;91.70;;;11.22;66.55;98388.75;4737728;30;20471;-67
2023/11/04 10:27:56;;;;;;;1.63;0.90;;;11.10;92.20;;;11.40;66.57;98380.13;4737409;30;20835;-67
2023/11/04 10:30:27;;;;;;;1.20;0.90;;;11.20;92.50;;;11.40;64.99;98380.13;4738012;30;20510;-66
2023/11/04 10:33:07;;;;;;;1.70;1.37;;;11.20;90.70;;;11.60;65.26;98382.84;4733120;30;20492;-66
2023/11/04 10:35:39;;;;;;;4.13;1.03;;;11.40;91.40;;;11.65;64.59;98376.63;4735320;30;20443;-66
2023/11/04 10:38:12;;;;;;;2.20;0.87;;;11.40;90.30;;;11.56;64.39;98378.25;4737051;30;20446;-67
2023/11/04 10:40:43;;;;;;;1.20;0.70;;;11.40;89.20;;;11.44;64.47;98370.38;4737581;30;20449;-66
2023/11/04 10:43:16;;;;;;;0.83;0.50;;;11.40;89.60;;;11.40;64.84;98372.00;4737650;30;20470;-66